sensor_id;sensor_type;location;lat;lon;timestamp;P1;durP1;ratioP1;P2;durP2;ratioP2
65753;SDS011;52488;47.502;18.940;2023-02-03T00:00:11;4.90;;;1.90;;
65753;SDS011;52488;47.502;18.940;2023-02-03T00:01:14;5.15;;;1.85;;
65753;SDS011;52488;47.502;18.940;2023-02-03T00:02:18;4.78;;;1.60;;
65753;SDS011;52488;47.502;18.940;2023-02-03T00:03:21;6.45;;;2.10;;
65753;SDS011;52488;47.502;18.940;2023-02-03T00:04:24;5.82;;;1.75;;
65753;SDS011;52488;47.502;18.940;2023-02-03T00:05:27;4.68;;;1.90;;
65753;SDS011;52488;47.502;18.940;2023-02-03T00:06:31;5.32;;;2.33;;
65753;SDS011;52488;47.502;18.940;2023-02-03T00:07:35;4.07;;;1.83;;
65753;SDS011;52488;47.502;18.940;2023-02-03T00:08:39;3.45;;;1.73;;
65753;SDS011;52488;47.502;18.940;2023-02-03T00:09:42;5.53;;;1.87;;
65753;SDS011;52488;47.502;18.940;2023-02-03T00:10:45;5.47;;;2.25;;
65753;SDS011;52488;47.502;18.940;2023-02-03T00:11:48;3.70;;;2.03;;
65753;SDS011;52488;47.502;18.940;2023-02-03T00:12:51;5.32;;;1.98;;
65753;SDS011;52488;47.502;18.940;2023-02-03T00:13:55;4.20;;;1.75;;
65753;SDS011;52488;47.502;18.940;2023-02-03T00:14:58;4.85;;;1.42;;
65753;SDS011;52488;47.502;18.940;2023-02-03T00:16:03;5.65;;;1.75;;
65753;SDS011;52488;47.502;18.940;2023-02-03T00:17:08;4.45;;;1.90;;
65753;SDS011;52488;47.502;18.940;2023-02-03T00:18:11;3.33;;;1.42;;
65753;SDS011;52488;47.502;18.940;2023-02-03T00:19:14;3.85;;;1.30;;
65753;SDS011;52488;47.502;18.940;2023-02-03T00:20:18;2.30;;;1.62;;
65753;SDS011;52488;47.502;18.940;2023-02-03T00:21:22;2.78;;;1.30;;
65753;SDS011;52488;47.502;18.940;2023-02-03T00:22:25;6.93;;;1.70;;
65753;SDS011;52488;47.502;18.940;2023-02-03T00:23:28;4.05;;;1.58;;
65753;SDS011;52488;47.502;18.940;2023-02-03T00:24:33;3.75;;;1.70;;
65753;SDS011;52488;47.502;18.940;2023-02-03T00:25:36;4.70;;;1.60;;
65753;SDS011;52488;47.502;18.940;2023-02-03T00:26:41;3.60;;;1.30;;
65753;SDS011;52488;47.502;18.940;2023-02-03T00:27:45;7.87;;;1.70;;
65753;SDS011;52488;47.502;18.940;2023-02-03T00:28:52;2.65;;;1.60;;
65753;SDS011;52488;47.502;18.940;2023-02-03T00:29:55;3.70;;;1.48;;
65753;SDS011;52488;47.502;18.940;2023-02-03T00:30:58;2.10;;;1.40;;
65753;SDS011;52488;47.502;18.940;2023-02-03T00:32:01;2.80;;;1.37;;
65753;SDS011;52488;47.502;18.940;2023-02-03T00:33:05;2.22;;;1.25;;
65753;SDS011;52488;47.502;18.940;2023-02-03T00:34:08;4.30;;;1.30;;
65753;SDS011;52488;47.502;18.940;2023-02-03T00:35:11;1.77;;;0.80;;
65753;SDS011;52488;47.502;18.940;2023-02-03T00:36:14;4.32;;;1.48;;
65753;SDS011;52488;47.502;18.940;2023-02-03T00:37:17;1.52;;;1.20;;
65753;SDS011;52488;47.502;18.940;2023-02-03T00:38:20;2.60;;;1.15;;
65753;SDS011;52488;47.502;18.940;2023-02-03T00:39:24;2.75;;;1.35;;
65753;SDS011;52488;47.502;18.940;2023-02-03T00:40:27;2.20;;;1.37;;
65753;SDS011;52488;47.502;18.940;2023-02-03T00:41:31;2.17;;;1.30;;
65753;SDS011;52488;47.502;18.940;2023-02-03T00:42:34;2.85;;;1.20;;
65753;SDS011;52488;47.502;18.940;2023-02-03T00:43:37;4.75;;;1.30;;
65753;SDS011;52488;47.502;18.940;2023-02-03T00:44:40;4.00;;;1.02;;
65753;SDS011;52488;47.502;18.940;2023-02-03T00:45:43;2.12;;;1.02;;
65753;SDS011;52488;47.502;18.940;2023-02-03T00:46:46;2.42;;;1.30;;
65753;SDS011;52488;47.502;18.940;2023-02-03T00:47:49;5.35;;;1.62;;
65753;SDS011;52488;47.502;18.940;2023-02-03T00:48:52;2.75;;;1.45;;
65753;SDS011;52488;47.502;18.940;2023-02-03T00:49:55;4.22;;;1.67;;
65753;SDS011;52488;47.502;18.940;2023-02-03T00:50:58;2.28;;;1.30;;
65753;SDS011;52488;47.502;18.940;2023-02-03T00:52:01;4.68;;;1.52;;
65753;SDS011;52488;47.502;18.940;2023-02-03T00:53:04;5.85;;;1.55;;
65753;SDS011;52488;47.502;18.940;2023-02-03T00:54:11;3.17;;;1.37;;
65753;SDS011;52488;47.502;18.940;2023-02-03T00:55:15;2.33;;;1.40;;
65753;SDS011;52488;47.502;18.940;2023-02-03T00:56:18;2.15;;;1.30;;
65753;SDS011;52488;47.502;18.940;2023-02-03T00:57:24;1.50;;;1.40;;
65753;SDS011;52488;47.502;18.940;2023-02-03T00:58:27;2.65;;;1.40;;
65753;SDS011;52488;47.502;18.940;2023-02-03T00:59:30;4.45;;;1.67;;
65753;SDS011;52488;47.502;18.940;2023-02-03T01:00:33;3.10;;;1.30;;
65753;SDS011;52488;47.502;18.940;2023-02-03T01:01:36;2.85;;;1.50;;
65753;SDS011;52488;47.502;18.940;2023-02-03T01:02:39;4.95;;;1.77;;
65753;SDS011;52488;47.502;18.940;2023-02-03T01:03:42;2.70;;;1.20;;
65753;SDS011;52488;47.502;18.940;2023-02-03T01:04:46;4.10;;;1.15;;
65753;SDS011;52488;47.502;18.940;2023-02-03T01:05:50;5.35;;;1.37;;
65753;SDS011;52488;47.502;18.940;2023-02-03T01:06:53;2.92;;;1.35;;
65753;SDS011;52488;47.502;18.940;2023-02-03T01:07:59;2.97;;;1.30;;
65753;SDS011;52488;47.502;18.940;2023-02-03T01:09:03;5.65;;;1.50;;
65753;SDS011;52488;47.502;18.940;2023-02-03T01:10:06;1.83;;;1.10;;
65753;SDS011;52488;47.502;18.940;2023-02-03T01:11:11;3.03;;;1.23;;
65753;SDS011;52488;47.502;18.940;2023-02-03T01:12:22;2.70;;;1.20;;
65753;SDS011;52488;47.502;18.940;2023-02-03T01:13:25;2.50;;;1.25;;
65753;SDS011;52488;47.502;18.940;2023-02-03T01:14:29;2.87;;;1.27;;
65753;SDS011;52488;47.502;18.940;2023-02-03T01:15:33;5.57;;;1.77;;
65753;SDS011;52488;47.502;18.940;2023-02-03T01:16:36;2.85;;;1.40;;
65753;SDS011;52488;47.502;18.940;2023-02-03T01:17:40;3.92;;;1.58;;
65753;SDS011;52488;47.502;18.940;2023-02-03T01:18:43;2.58;;;1.37;;
65753;SDS011;52488;47.502;18.940;2023-02-03T01:19:46;5.15;;;1.30;;
65753;SDS011;52488;47.502;18.940;2023-02-03T01:20:49;3.10;;;1.30;;
65753;SDS011;52488;47.502;18.940;2023-02-03T01:21:52;2.20;;;1.23;;
65753;SDS011;52488;47.502;18.940;2023-02-03T01:22:56;6.03;;;1.70;;
65753;SDS011;52488;47.502;18.940;2023-02-03T01:24:03;2.97;;;1.25;;
65753;SDS011;52488;47.502;18.940;2023-02-03T01:25:07;3.50;;;1.37;;
65753;SDS011;52488;47.502;18.940;2023-02-03T01:26:12;2.03;;;0.95;;
65753;SDS011;52488;47.502;18.940;2023-02-03T01:27:17;3.42;;;1.50;;
65753;SDS011;52488;47.502;18.940;2023-02-03T01:28:20;2.58;;;1.15;;
65753;SDS011;52488;47.502;18.940;2023-02-03T01:29:23;2.15;;;1.42;;
65753;SDS011;52488;47.502;18.940;2023-02-03T01:30:26;3.37;;;1.25;;
65753;SDS011;52488;47.502;18.940;2023-02-03T01:31:47;4.22;;;1.58;;
65753;SDS011;52488;47.502;18.940;2023-02-03T01:32:51;3.58;;;1.40;;
65753;SDS011;52488;47.502;18.940;2023-02-03T01:33:53;2.78;;;1.48;;
65753;SDS011;52488;47.502;18.940;2023-02-03T01:34:57;3.80;;;1.37;;
65753;SDS011;52488;47.502;18.940;2023-02-03T01:36:00;4.47;;;1.15;;
65753;SDS011;52488;47.502;18.940;2023-02-03T01:37:04;1.95;;;0.90;;
65753;SDS011;52488;47.502;18.940;2023-02-03T01:38:07;2.40;;;1.20;;
65753;SDS011;52488;47.502;18.940;2023-02-03T01:39:10;1.58;;;1.20;;
65753;SDS011;52488;47.502;18.940;2023-02-03T01:40:13;2.83;;;1.15;;
65753;SDS011;52488;47.502;18.940;2023-02-03T01:41:17;1.85;;;0.88;;
65753;SDS011;52488;47.502;18.940;2023-02-03T01:42:23;1.98;;;1.00;;
65753;SDS011;52488;47.502;18.940;2023-02-03T01:43:27;3.20;;;1.17;;
65753;SDS011;52488;47.502;18.940;2023-02-03T01:44:42;1.42;;;1.10;;
65753;SDS011;52488;47.502;18.940;2023-02-03T01:45:50;3.37;;;1.05;;
65753;SDS011;52488;47.502;18.940;2023-02-03T01:46:54;2.83;;;1.20;;
65753;SDS011;52488;47.502;18.940;2023-02-03T01:47:57;1.55;;;0.80;;
65753;SDS011;52488;47.502;18.940;2023-02-03T01:49:11;2.92;;;1.33;;
65753;SDS011;52488;47.502;18.940;2023-02-03T01:50:22;2.60;;;1.33;;
65753;SDS011;52488;47.502;18.940;2023-02-03T01:51:32;2.40;;;1.42;;
65753;SDS011;52488;47.502;18.940;2023-02-03T01:52:36;1.42;;;1.05;;
65753;SDS011;52488;47.502;18.940;2023-02-03T01:53:42;4.03;;;1.48;;
65753;SDS011;52488;47.502;18.940;2023-02-03T01:54:46;1.23;;;1.10;;
65753;SDS011;52488;47.502;18.940;2023-02-03T01:55:51;2.62;;;1.45;;
65753;SDS011;52488;47.502;18.940;2023-02-03T01:56:58;2.67;;;1.10;;
65753;SDS011;52488;47.502;18.940;2023-02-03T01:58:12;2.25;;;1.30;;
65753;SDS011;52488;47.502;18.940;2023-02-03T01:59:24;2.85;;;0.90;;
65753;SDS011;52488;47.502;18.940;2023-02-03T02:00:28;2.60;;;1.30;;
65753;SDS011;52488;47.502;18.940;2023-02-03T02:01:31;3.00;;;1.30;;
65753;SDS011;52488;47.502;18.940;2023-02-03T02:02:36;1.85;;;1.25;;
65753;SDS011;52488;47.502;18.940;2023-02-03T02:03:49;1.42;;;1.30;;
65753;SDS011;52488;47.502;18.940;2023-02-03T02:05:00;3.40;;;1.27;;
65753;SDS011;52488;47.502;18.940;2023-02-03T02:06:09;4.07;;;1.33;;
65753;SDS011;52488;47.502;18.940;2023-02-03T02:07:15;0.93;;;0.68;;
65753;SDS011;52488;47.502;18.940;2023-02-03T02:08:19;3.22;;;1.12;;
65753;SDS011;52488;47.502;18.940;2023-02-03T02:09:25;1.90;;;1.25;;
65753;SDS011;52488;47.502;18.940;2023-02-03T02:10:29;3.83;;;1.20;;
65753;SDS011;52488;47.502;18.940;2023-02-03T02:11:33;2.92;;;1.30;;
65753;SDS011;52488;47.502;18.940;2023-02-03T02:12:39;5.40;;;1.50;;
65753;SDS011;52488;47.502;18.940;2023-02-03T02:13:41;3.00;;;1.40;;
65753;SDS011;52488;47.502;18.940;2023-02-03T02:14:47;2.42;;;1.10;;
65753;SDS011;52488;47.502;18.940;2023-02-03T02:17:21;2.30;;;1.10;;
65753;SDS011;52488;47.502;18.940;2023-02-03T02:24:25;2.78;;;1.37;;
65753;SDS011;52488;47.502;18.940;2023-02-03T02:34:53;5.72;;;1.33;;
65753;SDS011;52488;47.502;18.940;2023-02-03T02:38:48;3.12;;;1.40;;
65753;SDS011;52488;47.502;18.940;2023-02-03T02:40:10;2.70;;;1.35;;
65753;SDS011;52488;47.502;18.940;2023-02-03T02:41:54;2.95;;;1.37;;
65753;SDS011;52488;47.502;18.940;2023-02-03T02:43:10;3.33;;;1.40;;
65753;SDS011;52488;47.502;18.940;2023-02-03T02:44:24;2.35;;;1.35;;
65753;SDS011;52488;47.502;18.940;2023-02-03T02:47:26;3.97;;;1.30;;
65753;SDS011;52488;47.502;18.940;2023-02-03T02:48:37;3.42;;;1.67;;
65753;SDS011;52488;47.502;18.940;2023-02-03T02:49:53;3.25;;;1.40;;
65753;SDS011;52488;47.502;18.940;2023-02-03T02:51:02;2.95;;;1.35;;
65753;SDS011;52488;47.502;18.940;2023-02-03T02:52:08;3.70;;;1.20;;
65753;SDS011;52488;47.502;18.940;2023-02-03T02:53:15;4.78;;;1.70;;
65753;SDS011;52488;47.502;18.940;2023-02-03T02:54:22;3.17;;;1.33;;
65753;SDS011;52488;47.502;18.940;2023-02-03T02:55:30;3.90;;;1.40;;
65753;SDS011;52488;47.502;18.940;2023-02-03T02:56:35;1.75;;;1.12;;
65753;SDS011;52488;47.502;18.940;2023-02-03T02:57:41;1.98;;;1.50;;
65753;SDS011;52488;47.502;18.940;2023-02-03T02:58:47;2.28;;;1.00;;
65753;SDS011;52488;47.502;18.940;2023-02-03T02:59:52;2.83;;;1.20;;
65753;SDS011;52488;47.502;18.940;2023-02-03T03:00:56;1.90;;;1.10;;
65753;SDS011;52488;47.502;18.940;2023-02-03T03:02:00;1.77;;;1.30;;
65753;SDS011;52488;47.502;18.940;2023-02-03T03:03:22;1.45;;;1.35;;
65753;SDS011;52488;47.502;18.940;2023-02-03T03:04:26;3.30;;;0.88;;
65753;SDS011;52488;47.502;18.940;2023-02-03T03:05:32;2.67;;;1.20;;
65753;SDS011;52488;47.502;18.940;2023-02-03T03:06:37;5.32;;;1.73;;
65753;SDS011;52488;47.502;18.940;2023-02-03T03:07:45;3.10;;;1.37;;
65753;SDS011;52488;47.502;18.940;2023-02-03T03:08:58;2.17;;;1.17;;
65753;SDS011;52488;47.502;18.940;2023-02-03T03:10:08;4.70;;;1.20;;
65753;SDS011;52488;47.502;18.940;2023-02-03T03:11:15;2.75;;;1.20;;
65753;SDS011;52488;47.502;18.940;2023-02-03T03:12:20;2.30;;;1.40;;
65753;SDS011;52488;47.502;18.940;2023-02-03T03:13:31;2.90;;;1.35;;
65753;SDS011;52488;47.502;18.940;2023-02-03T03:14:53;3.50;;;1.10;;
65753;SDS011;52488;47.502;18.940;2023-02-03T03:16:00;3.05;;;1.20;;
65753;SDS011;52488;47.502;18.940;2023-02-03T03:17:07;2.00;;;1.48;;
65753;SDS011;52488;47.502;18.940;2023-02-03T03:18:15;4.87;;;1.70;;
65753;SDS011;52488;47.502;18.940;2023-02-03T03:19:24;1.98;;;1.20;;
65753;SDS011;52488;47.502;18.940;2023-02-03T03:20:33;2.70;;;1.30;;
65753;SDS011;52488;47.502;18.940;2023-02-03T03:21:42;3.10;;;1.12;;
65753;SDS011;52488;47.502;18.940;2023-02-03T03:22:56;2.35;;;1.62;;
65753;SDS011;52488;47.502;18.940;2023-02-03T03:24:09;1.80;;;1.10;;
65753;SDS011;52488;47.502;18.940;2023-02-03T03:25:25;2.42;;;1.25;;
65753;SDS011;52488;47.502;18.940;2023-02-03T03:28:22;1.98;;;1.15;;
65753;SDS011;52488;47.502;18.940;2023-02-03T03:29:31;3.20;;;0.82;;
65753;SDS011;52488;47.502;18.940;2023-02-03T03:30:36;3.87;;;1.40;;
65753;SDS011;52488;47.502;18.940;2023-02-03T03:31:40;4.70;;;1.50;;
65753;SDS011;52488;47.502;18.940;2023-02-03T03:32:44;2.95;;;1.20;;
65753;SDS011;52488;47.502;18.940;2023-02-03T03:33:48;3.87;;;1.55;;
65753;SDS011;52488;47.502;18.940;2023-02-03T03:34:51;2.28;;;1.30;;
65753;SDS011;52488;47.502;18.940;2023-02-03T03:36:01;3.75;;;1.37;;
65753;SDS011;52488;47.502;18.940;2023-02-03T03:37:23;1.60;;;1.27;;
65753;SDS011;52488;47.502;18.940;2023-02-03T03:38:40;5.50;;;1.65;;
65753;SDS011;52488;47.502;18.940;2023-02-03T03:39:52;1.77;;;1.23;;
65753;SDS011;52488;47.502;18.940;2023-02-03T03:41:07;3.85;;;1.60;;
65753;SDS011;52488;47.502;18.940;2023-02-03T03:43:33;4.75;;;1.35;;
65753;SDS011;52488;47.502;18.940;2023-02-03T03:44:42;3.12;;;1.65;;
65753;SDS011;52488;47.502;18.940;2023-02-03T03:45:58;5.10;;;1.48;;
65753;SDS011;52488;47.502;18.940;2023-02-03T03:47:20;3.03;;;1.37;;
65753;SDS011;52488;47.502;18.940;2023-02-03T03:49:39;2.20;;;1.45;;
65753;SDS011;52488;47.502;18.940;2023-02-03T03:50:46;2.55;;;1.40;;
65753;SDS011;52488;47.502;18.940;2023-02-03T03:51:55;4.57;;;1.50;;
65753;SDS011;52488;47.502;18.940;2023-02-03T03:53:02;4.47;;;1.30;;
65753;SDS011;52488;47.502;18.940;2023-02-03T03:54:09;3.45;;;1.23;;
65753;SDS011;52488;47.502;18.940;2023-02-03T03:55:16;1.85;;;1.20;;
65753;SDS011;52488;47.502;18.940;2023-02-03T03:56:23;2.67;;;1.42;;
65753;SDS011;52488;47.502;18.940;2023-02-03T03:57:33;2.00;;;1.30;;
65753;SDS011;52488;47.502;18.940;2023-02-03T03:58:41;4.15;;;1.37;;
65753;SDS011;52488;47.502;18.940;2023-02-03T03:59:57;1.45;;;1.20;;
65753;SDS011;52488;47.502;18.940;2023-02-03T04:01:04;3.03;;;1.30;;
65753;SDS011;52488;47.502;18.940;2023-02-03T04:02:09;4.53;;;1.80;;
65753;SDS011;52488;47.502;18.940;2023-02-03T04:03:15;4.28;;;1.60;;
65753;SDS011;52488;47.502;18.940;2023-02-03T04:04:23;2.70;;;1.33;;
65753;SDS011;52488;47.502;18.940;2023-02-03T04:05:27;4.80;;;1.55;;
65753;SDS011;52488;47.502;18.940;2023-02-03T04:06:30;2.97;;;1.35;;
65753;SDS011;52488;47.502;18.940;2023-02-03T04:07:37;2.25;;;1.30;;
65753;SDS011;52488;47.502;18.940;2023-02-03T04:08:42;2.40;;;1.27;;
65753;SDS011;52488;47.502;18.940;2023-02-03T04:09:45;2.65;;;1.35;;
65753;SDS011;52488;47.502;18.940;2023-02-03T04:10:48;3.03;;;1.50;;
65753;SDS011;52488;47.502;18.940;2023-02-03T04:11:51;3.75;;;1.75;;
65753;SDS011;52488;47.502;18.940;2023-02-03T04:13:04;2.67;;;1.37;;
65753;SDS011;52488;47.502;18.940;2023-02-03T04:14:08;4.12;;;1.60;;
65753;SDS011;52488;47.502;18.940;2023-02-03T04:15:12;2.75;;;1.40;;
65753;SDS011;52488;47.502;18.940;2023-02-03T04:16:15;2.22;;;1.27;;
65753;SDS011;52488;47.502;18.940;2023-02-03T04:17:18;2.40;;;0.98;;
65753;SDS011;52488;47.502;18.940;2023-02-03T04:18:21;2.92;;;1.30;;
65753;SDS011;52488;47.502;18.940;2023-02-03T04:19:25;5.15;;;1.30;;
65753;SDS011;52488;47.502;18.940;2023-02-03T04:20:30;1.70;;;1.10;;
65753;SDS011;52488;47.502;18.940;2023-02-03T04:21:33;2.53;;;1.15;;
65753;SDS011;52488;47.502;18.940;2023-02-03T04:22:36;2.20;;;1.30;;
65753;SDS011;52488;47.502;18.940;2023-02-03T04:23:39;3.85;;;1.30;;
65753;SDS011;52488;47.502;18.940;2023-02-03T04:24:42;3.25;;;1.10;;
65753;SDS011;52488;47.502;18.940;2023-02-03T04:25:45;3.55;;;1.60;;
65753;SDS011;52488;47.502;18.940;2023-02-03T04:26:49;1.02;;;0.90;;
65753;SDS011;52488;47.502;18.940;2023-02-03T04:27:52;1.92;;;1.10;;
65753;SDS011;52488;47.502;18.940;2023-02-03T04:28:55;2.80;;;1.10;;
65753;SDS011;52488;47.502;18.940;2023-02-03T04:29:58;3.30;;;1.62;;
65753;SDS011;52488;47.502;18.940;2023-02-03T04:31:01;3.03;;;1.37;;
65753;SDS011;52488;47.502;18.940;2023-02-03T04:32:04;5.05;;;1.60;;
65753;SDS011;52488;47.502;18.940;2023-02-03T04:33:07;2.42;;;1.12;;
65753;SDS011;52488;47.502;18.940;2023-02-03T04:34:10;2.37;;;1.20;;
65753;SDS011;52488;47.502;18.940;2023-02-03T04:35:13;3.22;;;1.40;;
65753;SDS011;52488;47.502;18.940;2023-02-03T04:36:16;1.48;;;1.12;;
65753;SDS011;52488;47.502;18.940;2023-02-03T04:37:19;4.10;;;1.33;;
65753;SDS011;52488;47.502;18.940;2023-02-03T04:38:24;1.60;;;1.05;;
65753;SDS011;52488;47.502;18.940;2023-02-03T04:39:27;2.17;;;1.02;;
65753;SDS011;52488;47.502;18.940;2023-02-03T04:40:30;2.53;;;1.40;;
65753;SDS011;52488;47.502;18.940;2023-02-03T04:41:36;2.08;;;1.30;;
65753;SDS011;52488;47.502;18.940;2023-02-03T04:42:39;1.87;;;1.25;;
65753;SDS011;52488;47.502;18.940;2023-02-03T04:43:43;2.72;;;1.20;;
65753;SDS011;52488;47.502;18.940;2023-02-03T04:44:46;6.32;;;1.42;;
65753;SDS011;52488;47.502;18.940;2023-02-03T04:45:50;2.55;;;1.25;;
65753;SDS011;52488;47.502;18.940;2023-02-03T04:46:53;2.33;;;1.30;;
65753;SDS011;52488;47.502;18.940;2023-02-03T04:47:56;2.25;;;1.00;;
65753;SDS011;52488;47.502;18.940;2023-02-03T04:48:59;3.80;;;1.42;;
65753;SDS011;52488;47.502;18.940;2023-02-03T04:50:02;2.80;;;1.17;;
65753;SDS011;52488;47.502;18.940;2023-02-03T04:51:06;2.58;;;1.30;;
65753;SDS011;52488;47.502;18.940;2023-02-03T04:52:10;4.53;;;1.48;;
65753;SDS011;52488;47.502;18.940;2023-02-03T04:53:13;2.75;;;1.08;;
65753;SDS011;52488;47.502;18.940;2023-02-03T04:54:17;2.58;;;1.40;;
65753;SDS011;52488;47.502;18.940;2023-02-03T04:55:20;6.55;;;1.40;;
65753;SDS011;52488;47.502;18.940;2023-02-03T04:56:23;1.67;;;1.05;;
65753;SDS011;52488;47.502;18.940;2023-02-03T04:57:26;4.65;;;1.30;;
65753;SDS011;52488;47.502;18.940;2023-02-03T04:58:28;2.90;;;1.02;;
65753;SDS011;52488;47.502;18.940;2023-02-03T04:59:31;2.17;;;1.20;;
65753;SDS011;52488;47.502;18.940;2023-02-03T05:00:34;3.87;;;1.35;;
65753;SDS011;52488;47.502;18.940;2023-02-03T05:01:37;2.65;;;1.05;;
65753;SDS011;52488;47.502;18.940;2023-02-03T05:02:40;2.87;;;1.55;;
65753;SDS011;52488;47.502;18.940;2023-02-03T05:03:43;3.78;;;1.62;;
65753;SDS011;52488;47.502;18.940;2023-02-03T05:04:46;3.60;;;1.30;;
65753;SDS011;52488;47.502;18.940;2023-02-03T05:05:49;3.00;;;1.35;;
65753;SDS011;52488;47.502;18.940;2023-02-03T05:06:52;2.37;;;1.20;;
65753;SDS011;52488;47.502;18.940;2023-02-03T05:07:55;1.83;;;1.33;;
65753;SDS011;52488;47.502;18.940;2023-02-03T05:08:58;2.72;;;1.17;;
65753;SDS011;52488;47.502;18.940;2023-02-03T05:10:01;3.75;;;1.02;;
65753;SDS011;52488;47.502;18.940;2023-02-03T05:11:05;2.75;;;1.52;;
65753;SDS011;52488;47.502;18.940;2023-02-03T05:12:08;2.00;;;1.23;;
65753;SDS011;52488;47.502;18.940;2023-02-03T05:13:11;1.67;;;1.00;;
65753;SDS011;52488;47.502;18.940;2023-02-03T05:14:14;2.30;;;1.35;;
65753;SDS011;52488;47.502;18.940;2023-02-03T05:15:16;1.33;;;0.98;;
65753;SDS011;52488;47.502;18.940;2023-02-03T05:16:19;3.40;;;1.10;;
65753;SDS011;52488;47.502;18.940;2023-02-03T05:17:23;1.58;;;1.20;;
65753;SDS011;52488;47.502;18.940;2023-02-03T05:18:26;3.00;;;1.50;;
65753;SDS011;52488;47.502;18.940;2023-02-03T05:19:29;1.98;;;1.20;;
65753;SDS011;52488;47.502;18.940;2023-02-03T05:20:32;3.10;;;1.42;;
65753;SDS011;52488;47.502;18.940;2023-02-03T05:21:35;4.43;;;1.30;;
65753;SDS011;52488;47.502;18.940;2023-02-03T05:22:38;5.00;;;1.20;;
65753;SDS011;52488;47.502;18.940;2023-02-03T05:23:41;3.40;;;1.30;;
65753;SDS011;52488;47.502;18.940;2023-02-03T05:24:44;1.98;;;1.20;;
65753;SDS011;52488;47.502;18.940;2023-02-03T05:25:47;2.08;;;1.17;;
65753;SDS011;52488;47.502;18.940;2023-02-03T05:26:50;5.57;;;1.58;;
65753;SDS011;52488;47.502;18.940;2023-02-03T05:27:53;4.55;;;1.50;;
65753;SDS011;52488;47.502;18.940;2023-02-03T05:28:56;3.60;;;1.33;;
65753;SDS011;52488;47.502;18.940;2023-02-03T05:29:59;2.55;;;1.10;;
65753;SDS011;52488;47.502;18.940;2023-02-03T05:31:02;4.50;;;1.70;;
65753;SDS011;52488;47.502;18.940;2023-02-03T05:32:09;3.35;;;1.37;;
65753;SDS011;52488;47.502;18.940;2023-02-03T05:33:15;2.10;;;1.42;;
65753;SDS011;52488;47.502;18.940;2023-02-03T05:34:18;1.92;;;1.20;;
65753;SDS011;52488;47.502;18.940;2023-02-03T05:35:21;2.83;;;1.30;;
65753;SDS011;52488;47.502;18.940;2023-02-03T05:36:24;3.80;;;1.40;;
65753;SDS011;52488;47.502;18.940;2023-02-03T05:37:26;2.05;;;1.08;;
65753;SDS011;52488;47.502;18.940;2023-02-03T05:38:30;2.12;;;1.10;;
65753;SDS011;52488;47.502;18.940;2023-02-03T05:39:33;3.20;;;1.30;;
65753;SDS011;52488;47.502;18.940;2023-02-03T05:40:36;4.43;;;1.90;;
65753;SDS011;52488;47.502;18.940;2023-02-03T05:41:57;6.43;;;2.03;;
65753;SDS011;52488;47.502;18.940;2023-02-03T05:43:00;8.95;;;2.40;;
65753;SDS011;52488;47.502;18.940;2023-02-03T05:44:03;8.98;;;3.10;;
65753;SDS011;52488;47.502;18.940;2023-02-03T05:45:07;4.70;;;1.95;;
65753;SDS011;52488;47.502;18.940;2023-02-03T05:46:10;7.72;;;1.90;;
65753;SDS011;52488;47.502;18.940;2023-02-03T05:47:13;5.43;;;1.75;;
65753;SDS011;52488;47.502;18.940;2023-02-03T05:48:16;2.85;;;1.45;;
65753;SDS011;52488;47.502;18.940;2023-02-03T05:49:19;3.50;;;1.50;;
65753;SDS011;52488;47.502;18.940;2023-02-03T05:50:24;3.40;;;1.50;;
65753;SDS011;52488;47.502;18.940;2023-02-03T05:51:29;3.95;;;1.67;;
65753;SDS011;52488;47.502;18.940;2023-02-03T05:52:32;2.78;;;1.45;;
65753;SDS011;52488;47.502;18.940;2023-02-03T05:53:35;2.87;;;1.40;;
65753;SDS011;52488;47.502;18.940;2023-02-03T05:54:38;3.15;;;1.45;;
65753;SDS011;52488;47.502;18.940;2023-02-03T05:55:41;4.50;;;1.45;;
65753;SDS011;52488;47.502;18.940;2023-02-03T05:56:43;3.28;;;1.30;;
65753;SDS011;52488;47.502;18.940;2023-02-03T05:57:50;4.40;;;1.50;;
65753;SDS011;52488;47.502;18.940;2023-02-03T05:58:53;2.42;;;1.12;;
65753;SDS011;52488;47.502;18.940;2023-02-03T05:59:56;4.05;;;1.33;;
65753;SDS011;52488;47.502;18.940;2023-02-03T06:00:59;2.42;;;1.48;;
65753;SDS011;52488;47.502;18.940;2023-02-03T06:02:02;5.75;;;1.35;;
65753;SDS011;52488;47.502;18.940;2023-02-03T06:03:05;3.12;;;1.77;;
65753;SDS011;52488;47.502;18.940;2023-02-03T06:04:08;2.55;;;1.50;;
65753;SDS011;52488;47.502;18.940;2023-02-03T06:05:11;3.83;;;1.73;;
65753;SDS011;52488;47.502;18.940;2023-02-03T06:06:15;2.80;;;1.67;;
65753;SDS011;52488;47.502;18.940;2023-02-03T06:07:18;3.37;;;1.87;;
65753;SDS011;52488;47.502;18.940;2023-02-03T06:08:25;2.90;;;1.95;;
65753;SDS011;52488;47.502;18.940;2023-02-03T06:09:29;4.35;;;1.98;;
65753;SDS011;52488;47.502;18.940;2023-02-03T06:10:32;4.82;;;2.20;;
65753;SDS011;52488;47.502;18.940;2023-02-03T06:11:35;4.80;;;2.12;;
65753;SDS011;52488;47.502;18.940;2023-02-03T06:12:38;4.03;;;2.05;;
65753;SDS011;52488;47.502;18.940;2023-02-03T06:13:42;5.45;;;2.50;;
65753;SDS011;52488;47.502;18.940;2023-02-03T06:14:45;4.40;;;2.33;;
65753;SDS011;52488;47.502;18.940;2023-02-03T06:15:51;5.45;;;2.70;;
65753;SDS011;52488;47.502;18.940;2023-02-03T06:16:54;5.68;;;2.10;;
65753;SDS011;52488;47.502;18.940;2023-02-03T06:17:58;4.20;;;2.60;;
65753;SDS011;52488;47.502;18.940;2023-02-03T06:19:01;4.80;;;2.47;;
65753;SDS011;52488;47.502;18.940;2023-02-03T06:20:05;3.75;;;2.08;;
65753;SDS011;52488;47.502;18.940;2023-02-03T06:21:10;4.57;;;2.00;;
65753;SDS011;52488;47.502;18.940;2023-02-03T06:22:13;3.78;;;1.95;;
65753;SDS011;52488;47.502;18.940;2023-02-03T06:23:16;4.78;;;1.70;;
65753;SDS011;52488;47.502;18.940;2023-02-03T06:24:20;3.55;;;1.48;;
65753;SDS011;52488;47.502;18.940;2023-02-03T06:25:23;4.75;;;1.70;;
65753;SDS011;52488;47.502;18.940;2023-02-03T06:26:29;2.75;;;1.50;;
65753;SDS011;52488;47.502;18.940;2023-02-03T06:27:32;1.45;;;1.02;;
65753;SDS011;52488;47.502;18.940;2023-02-03T06:28:35;2.25;;;1.20;;
65753;SDS011;52488;47.502;18.940;2023-02-03T06:29:40;4.68;;;1.20;;
65753;SDS011;52488;47.502;18.940;2023-02-03T06:30:43;3.15;;;1.77;;
65753;SDS011;52488;47.502;18.940;2023-02-03T06:31:46;5.47;;;1.45;;
65753;SDS011;52488;47.502;18.940;2023-02-03T06:32:49;3.15;;;1.50;;
65753;SDS011;52488;47.502;18.940;2023-02-03T06:33:52;4.57;;;1.50;;
65753;SDS011;52488;47.502;18.940;2023-02-03T06:34:55;3.17;;;1.60;;
65753;SDS011;52488;47.502;18.940;2023-02-03T06:35:58;2.78;;;1.35;;
65753;SDS011;52488;47.502;18.940;2023-02-03T06:37:01;2.15;;;1.48;;
65753;SDS011;52488;47.502;18.940;2023-02-03T06:38:04;3.15;;;1.37;;
65753;SDS011;52488;47.502;18.940;2023-02-03T06:39:07;4.18;;;1.65;;
65753;SDS011;52488;47.502;18.940;2023-02-03T06:40:10;2.03;;;1.42;;
65753;SDS011;52488;47.502;18.940;2023-02-03T06:41:14;3.30;;;1.27;;
65753;SDS011;52488;47.502;18.940;2023-02-03T06:42:17;2.83;;;1.50;;
65753;SDS011;52488;47.502;18.940;2023-02-03T06:43:21;5.22;;;1.50;;
65753;SDS011;52488;47.502;18.940;2023-02-03T06:44:25;3.60;;;1.60;;
65753;SDS011;52488;47.502;18.940;2023-02-03T06:45:28;3.08;;;1.67;;
65753;SDS011;52488;47.502;18.940;2023-02-03T06:46:34;3.90;;;1.50;;
65753;SDS011;52488;47.502;18.940;2023-02-03T06:47:43;3.47;;;1.60;;
65753;SDS011;52488;47.502;18.940;2023-02-03T06:48:47;5.70;;;1.87;;
65753;SDS011;52488;47.502;18.940;2023-02-03T06:49:50;4.62;;;1.87;;
65753;SDS011;52488;47.502;18.940;2023-02-03T06:50:53;4.97;;;1.80;;
65753;SDS011;52488;47.502;18.940;2023-02-03T06:51:56;3.95;;;1.73;;